sensor_id;sensor_type;location;lat;lon;timestamp;P1;durP1;ratioP1;P2;durP2;ratioP2
18568;SDS011;14780;48.316;-1.050;2023-01-05T00:02:20;1.45;;;1.00;;
18568;SDS011;14780;48.316;-1.050;2023-01-05T00:05:04;1.42;;;1.15;;
18568;SDS011;14780;48.316;-1.050;2023-01-05T00:07:49;1.08;;;0.95;;
18568;SDS011;14780;48.316;-1.050;2023-01-05T00:10:35;1.92;;;1.08;;
18568;SDS011;14780;48.316;-1.050;2023-01-05T00:13:39;2.00;;;1.10;;
18568;SDS011;14780;48.316;-1.050;2023-01-05T00:16:43;4.40;;;0.98;;
18568;SDS011;14780;48.316;-1.050;2023-01-05T00:19:46;0.73;;;0.73;;
18568;SDS011;14780;48.316;-1.050;2023-01-05T00:22:51;4.13;;;1.23;;
18568;SDS011;14780;48.316;-1.050;2023-01-05T00:25:38;1.33;;;1.08;;
18568;SDS011;14780;48.316;-1.050;2023-01-05T00:28:23;1.27;;;1.00;;
18568;SDS011;14780;48.316;-1.050;2023-01-05T00:31:08;1.60;;;1.00;;
18568;SDS011;14780;48.316;-1.050;2023-01-05T00:33:53;2.13;;;0.88;;
18568;SDS011;14780;48.316;-1.050;2023-01-05T00:36:38;0.93;;;0.82;;
18568;SDS011;14780;48.316;-1.050;2023-01-05T00:39:23;1.77;;;1.27;;
18568;SDS011;14780;48.316;-1.050;2023-01-05T00:42:08;1.20;;;0.90;;
18568;SDS011;14780;48.316;-1.050;2023-01-05T00:44:53;1.20;;;0.68;;
18568;SDS011;14780;48.316;-1.050;2023-01-05T00:47:37;1.10;;;1.00;;
18568;SDS011;14780;48.316;-1.050;2023-01-05T00:50:22;1.33;;;1.13;;
18568;SDS011;14780;48.316;-1.050;2023-01-05T00:53:07;1.00;;;0.90;;
18568;SDS011;14780;48.316;-1.050;2023-01-05T00:55:58;1.10;;;0.98;;
18568;SDS011;14780;48.316;-1.050;2023-01-05T00:58:43;1.20;;;0.98;;
18568;SDS011;14780;48.316;-1.050;2023-01-05T01:01:27;0.82;;;0.82;;
18568;SDS011;14780;48.316;-1.050;2023-01-05T01:04:12;1.40;;;1.10;;
18568;SDS011;14780;48.316;-1.050;2023-01-05T01:06:57;0.70;;;0.70;;
18568;SDS011;14780;48.316;-1.050;2023-01-05T01:09:42;0.75;;;0.75;;
18568;SDS011;14780;48.316;-1.050;2023-01-05T01:12:27;1.30;;;0.80;;
18568;SDS011;14780;48.316;-1.050;2023-01-05T01:15:11;1.25;;;0.90;;
18568;SDS011;14780;48.316;-1.050;2023-01-05T01:17:56;0.70;;;0.70;;
18568;SDS011;14780;48.316;-1.050;2023-01-05T01:20:40;1.05;;;0.80;;
18568;SDS011;14780;48.316;-1.050;2023-01-05T01:23:25;2.45;;;1.00;;
18568;SDS011;14780;48.316;-1.050;2023-01-05T01:26:11;1.48;;;1.02;;
18568;SDS011;14780;48.316;-1.050;2023-01-05T01:28:56;1.05;;;1.00;;
18568;SDS011;14780;48.316;-1.050;2023-01-05T01:31:41;0.50;;;0.50;;
18568;SDS011;14780;48.316;-1.050;2023-01-05T01:34:26;0.80;;;0.80;;
18568;SDS011;14780;48.316;-1.050;2023-01-05T01:37:11;0.68;;;0.65;;
18568;SDS011;14780;48.316;-1.050;2023-01-05T01:39:56;1.00;;;0.90;;
18568;SDS011;14780;48.316;-1.050;2023-01-05T01:42:40;0.55;;;0.55;;
18568;SDS011;14780;48.316;-1.050;2023-01-05T01:45:25;0.60;;;0.60;;
18568;SDS011;14780;48.316;-1.050;2023-01-05T01:48:10;0.82;;;0.80;;
18568;SDS011;14780;48.316;-1.050;2023-01-05T01:51:02;1.45;;;1.10;;
18568;SDS011;14780;48.316;-1.050;2023-01-05T01:53:52;0.70;;;0.70;;
18568;SDS011;14780;48.316;-1.050;2023-01-05T01:56:58;1.20;;;0.85;;
18568;SDS011;14780;48.316;-1.050;2023-01-05T01:59:43;1.08;;;1.00;;
18568;SDS011;14780;48.316;-1.050;2023-01-05T02:02:27;0.73;;;0.73;;
18568;SDS011;14780;48.316;-1.050;2023-01-05T02:05:12;1.02;;;0.80;;
18568;SDS011;14780;48.316;-1.050;2023-01-05T02:07:59;0.98;;;0.60;;
18568;SDS011;14780;48.316;-1.050;2023-01-05T02:10:48;1.67;;;0.80;;
18568;SDS011;14780;48.316;-1.050;2023-01-05T02:31:26;1.10;;;0.75;;
18568;SDS011;14780;48.316;-1.050;2023-01-05T02:34:27;0.70;;;0.70;;
18568;SDS011;14780;48.316;-1.050;2023-01-05T02:40:19;0.82;;;0.73;;
18568;SDS011;14780;48.316;-1.050;2023-01-05T02:43:12;0.93;;;0.73;;
18568;SDS011;14780;48.316;-1.050;2023-01-05T02:46:02;0.95;;;0.82;;
18568;SDS011;14780;48.316;-1.050;2023-01-05T02:48:48;0.73;;;0.70;;
18568;SDS011;14780;48.316;-1.050;2023-01-05T02:51:38;0.73;;;0.73;;
18568;SDS011;14780;48.316;-1.050;2023-01-05T02:54:32;0.60;;;0.60;;
18568;SDS011;14780;48.316;-1.050;2023-01-05T02:57:27;1.00;;;0.82;;
18568;SDS011;14780;48.316;-1.050;2023-01-05T03:00:38;0.80;;;0.80;;
18568;SDS011;14780;48.316;-1.050;2023-01-05T03:03:43;0.77;;;0.77;;
18568;SDS011;14780;48.316;-1.050;2023-01-05T03:06:33;0.75;;;0.68;;
18568;SDS011;14780;48.316;-1.050;2023-01-05T03:09:33;0.70;;;0.65;;
18568;SDS011;14780;48.316;-1.050;2023-01-05T03:15:29;0.70;;;0.70;;
18568;SDS011;14780;48.316;-1.050;2023-01-05T03:18:16;0.90;;;0.70;;
18568;SDS011;14780;48.316;-1.050;2023-01-05T03:21:04;0.80;;;0.80;;
18568;SDS011;14780;48.316;-1.050;2023-01-05T03:23:49;0.70;;;0.70;;
18568;SDS011;14780;48.316;-1.050;2023-01-05T03:26:54;0.63;;;0.63;;
18568;SDS011;14780;48.316;-1.050;2023-01-05T03:29:58;0.90;;;0.85;;
18568;SDS011;14780;48.316;-1.050;2023-01-05T03:33:17;0.50;;;0.50;;
18568;SDS011;14780;48.316;-1.050;2023-01-05T03:36:51;1.25;;;0.70;;
18568;SDS011;14780;48.316;-1.050;2023-01-05T03:39:50;0.75;;;0.75;;
18568;SDS011;14780;48.316;-1.050;2023-01-05T03:42:36;0.50;;;0.50;;
18568;SDS011;14780;48.316;-1.050;2023-01-05T03:45:21;0.90;;;0.75;;
18568;SDS011;14780;48.316;-1.050;2023-01-05T03:48:09;0.65;;;0.60;;
18568;SDS011;14780;48.316;-1.050;2023-01-05T03:50:54;0.63;;;0.63;;
18568;SDS011;14780;48.316;-1.050;2023-01-05T03:53:38;0.98;;;0.60;;
18568;SDS011;14780;48.316;-1.050;2023-01-05T03:56:23;0.85;;;0.85;;
18568;SDS011;14780;48.316;-1.050;2023-01-05T03:59:07;0.70;;;0.70;;
18568;SDS011;14780;48.316;-1.050;2023-01-05T04:01:52;0.95;;;0.80;;
18568;SDS011;14780;48.316;-1.050;2023-01-05T04:04:36;1.40;;;0.98;;
18568;SDS011;14780;48.316;-1.050;2023-01-05T04:07:21;0.77;;;0.77;;
18568;SDS011;14780;48.316;-1.050;2023-01-05T04:10:06;1.27;;;0.80;;
18568;SDS011;14780;48.316;-1.050;2023-01-05T04:12:51;1.15;;;0.75;;
18568;SDS011;14780;48.316;-1.050;2023-01-05T04:15:35;0.47;;;0.47;;
18568;SDS011;14780;48.316;-1.050;2023-01-05T04:18:21;0.50;;;0.50;;
18568;SDS011;14780;48.316;-1.050;2023-01-05T04:21:05;0.80;;;0.80;;
18568;SDS011;14780;48.316;-1.050;2023-01-05T04:23:50;1.20;;;1.10;;
18568;SDS011;14780;48.316;-1.050;2023-01-05T04:26:35;0.57;;;0.57;;
18568;SDS011;14780;48.316;-1.050;2023-01-05T04:29:24;0.40;;;0.40;;
18568;SDS011;14780;48.316;-1.050;2023-01-05T04:32:09;0.63;;;0.63;;
18568;SDS011;14780;48.316;-1.050;2023-01-05T04:34:53;0.95;;;0.50;;
18568;SDS011;14780;48.316;-1.050;2023-01-05T04:37:38;0.68;;;0.60;;
18568;SDS011;14780;48.316;-1.050;2023-01-05T04:40:22;0.50;;;0.50;;
18568;SDS011;14780;48.316;-1.050;2023-01-05T04:43:07;0.80;;;0.80;;
18568;SDS011;14780;48.316;-1.050;2023-01-05T04:45:51;0.50;;;0.50;;
18568;SDS011;14780;48.316;-1.050;2023-01-05T04:48:36;0.70;;;0.70;;
18568;SDS011;14780;48.316;-1.050;2023-01-05T04:51:21;0.85;;;0.85;;
18568;SDS011;14780;48.316;-1.050;2023-01-05T04:54:06;0.85;;;0.60;;
18568;SDS011;14780;48.316;-1.050;2023-01-05T04:56:51;0.75;;;0.75;;
18568;SDS011;14780;48.316;-1.050;2023-01-05T04:59:35;0.85;;;0.80;;
18568;SDS011;14780;48.316;-1.050;2023-01-05T05:02:21;0.40;;;0.40;;
18568;SDS011;14780;48.316;-1.050;2023-01-05T05:05:06;0.75;;;0.52;;
18568;SDS011;14780;48.316;-1.050;2023-01-05T05:07:51;0.70;;;0.60;;
18568;SDS011;14780;48.316;-1.050;2023-01-05T05:10:36;0.80;;;0.80;;
18568;SDS011;14780;48.316;-1.050;2023-01-05T05:13:21;0.60;;;0.60;;
18568;SDS011;14780;48.316;-1.050;2023-01-05T05:16:06;1.10;;;0.70;;
18568;SDS011;14780;48.316;-1.050;2023-01-05T05:18:51;0.63;;;0.60;;
18568;SDS011;14780;48.316;-1.050;2023-01-05T05:21:35;0.73;;;0.73;;
18568;SDS011;14780;48.316;-1.050;2023-01-05T05:24:20;0.88;;;0.75;;
18568;SDS011;14780;48.316;-1.050;2023-01-05T05:27:05;0.43;;;0.43;;
18568;SDS011;14780;48.316;-1.050;2023-01-05T05:29:50;0.57;;;0.57;;
18568;SDS011;14780;48.316;-1.050;2023-01-05T05:32:34;0.50;;;0.50;;
18568;SDS011;14780;48.316;-1.050;2023-01-05T05:35:19;0.60;;;0.60;;
18568;SDS011;14780;48.316;-1.050;2023-01-05T05:38:03;0.88;;;0.88;;
18568;SDS011;14780;48.316;-1.050;2023-01-05T05:40:48;0.65;;;0.65;;
18568;SDS011;14780;48.316;-1.050;2023-01-05T05:43:33;0.60;;;0.60;;
18568;SDS011;14780;48.316;-1.050;2023-01-05T05:46:18;0.82;;;0.77;;
18568;SDS011;14780;48.316;-1.050;2023-01-05T05:49:02;0.93;;;0.80;;
18568;SDS011;14780;48.316;-1.050;2023-01-05T05:51:47;0.95;;;0.80;;
18568;SDS011;14780;48.316;-1.050;2023-01-05T05:54:32;0.98;;;0.88;;
18568;SDS011;14780;48.316;-1.050;2023-01-05T05:57:16;0.68;;;0.65;;
18568;SDS011;14780;48.316;-1.050;2023-01-05T06:00:01;0.50;;;0.50;;
18568;SDS011;14780;48.316;-1.050;2023-01-05T06:02:47;0.68;;;0.68;;
18568;SDS011;14780;48.316;-1.050;2023-01-05T06:05:32;0.63;;;0.63;;
18568;SDS011;14780;48.316;-1.050;2023-01-05T06:08:16;1.33;;;0.98;;
18568;SDS011;14780;48.316;-1.050;2023-01-05T06:11:01;0.68;;;0.68;;
18568;SDS011;14780;48.316;-1.050;2023-01-05T06:13:45;0.60;;;0.60;;
18568;SDS011;14780;48.316;-1.050;2023-01-05T06:16:31;0.80;;;0.80;;
18568;SDS011;14780;48.316;-1.050;2023-01-05T06:19:16;1.42;;;1.10;;
18568;SDS011;14780;48.316;-1.050;2023-01-05T06:22:00;0.60;;;0.60;;
18568;SDS011;14780;48.316;-1.050;2023-01-05T06:24:45;0.77;;;0.77;;
18568;SDS011;14780;48.316;-1.050;2023-01-05T06:27:29;1.70;;;0.60;;
18568;SDS011;14780;48.316;-1.050;2023-01-05T06:30:14;0.75;;;0.75;;
18568;SDS011;14780;48.316;-1.050;2023-01-05T06:32:59;1.92;;;0.57;;
18568;SDS011;14780;48.316;-1.050;2023-01-05T06:35:44;0.82;;;0.73;;
18568;SDS011;14780;48.316;-1.050;2023-01-05T06:38:29;0.73;;;0.73;;
18568;SDS011;14780;48.316;-1.050;2023-01-05T06:41:13;0.50;;;0.50;;
18568;SDS011;14780;48.316;-1.050;2023-01-05T06:43:58;0.47;;;0.40;;
18568;SDS011;14780;48.316;-1.050;2023-01-05T06:46:42;0.52;;;0.52;;
18568;SDS011;14780;48.316;-1.050;2023-01-05T06:49:27;0.60;;;0.60;;
18568;SDS011;14780;48.316;-1.050;2023-01-05T06:52:11;0.40;;;0.40;;
18568;SDS011;14780;48.316;-1.050;2023-01-05T06:54:56;0.40;;;0.40;;
18568;SDS011;14780;48.316;-1.050;2023-01-05T06:57:41;0.50;;;0.50;;
18568;SDS011;14780;48.316;-1.050;2023-01-05T07:00:25;0.75;;;0.70;;
18568;SDS011;14780;48.316;-1.050;2023-01-05T07:03:11;1.23;;;0.60;;
18568;SDS011;14780;48.316;-1.050;2023-01-05T07:05:56;0.88;;;0.80;;
18568;SDS011;14780;48.316;-1.050;2023-01-05T07:08:41;0.93;;;0.70;;
18568;SDS011;14780;48.316;-1.050;2023-01-05T07:11:26;0.50;;;0.50;;
18568;SDS011;14780;48.316;-1.050;2023-01-05T07:14:10;1.35;;;0.68;;
18568;SDS011;14780;48.316;-1.050;2023-01-05T07:16:55;2.20;;;0.73;;
18568;SDS011;14780;48.316;-1.050;2023-01-05T07:19:40;0.73;;;0.52;;
18568;SDS011;14780;48.316;-1.050;2023-01-05T07:22:25;0.98;;;0.75;;
18568;SDS011;14780;48.316;-1.050;2023-01-05T07:25:10;0.60;;;0.60;;
18568;SDS011;14780;48.316;-1.050;2023-01-05T07:27:55;2.20;;;0.95;;
18568;SDS011;14780;48.316;-1.050;2023-01-05T07:30:40;1.23;;;1.00;;
18568;SDS011;14780;48.316;-1.050;2023-01-05T07:33:24;2.85;;;0.70;;
18568;SDS011;14780;48.316;-1.050;2023-01-05T07:36:09;3.22;;;0.93;;
18568;SDS011;14780;48.316;-1.050;2023-01-05T07:38:54;1.48;;;0.70;;
18568;SDS011;14780;48.316;-1.050;2023-01-05T07:41:39;1.77;;;0.85;;
18568;SDS011;14780;48.316;-1.050;2023-01-05T07:44:23;2.42;;;0.85;;
18568;SDS011;14780;48.316;-1.050;2023-01-05T07:47:08;2.33;;;1.00;;
18568;SDS011;14780;48.316;-1.050;2023-01-05T07:49:53;1.52;;;0.90;;
18568;SDS011;14780;48.316;-1.050;2023-01-05T07:52:38;3.55;;;1.00;;
18568;SDS011;14780;48.316;-1.050;2023-01-05T07:55:22;2.92;;;1.05;;
18568;SDS011;14780;48.316;-1.050;2023-01-05T07:58:07;5.38;;;1.35;;
18568;SDS011;14780;48.316;-1.050;2023-01-05T08:00:51;5.63;;;1.02;;
18568;SDS011;14780;48.316;-1.050;2023-01-05T08:03:36;1.70;;;1.30;;
18568;SDS011;14780;48.316;-1.050;2023-01-05T08:06:21;1.88;;;1.20;;
18568;SDS011;14780;48.316;-1.050;2023-01-05T08:09:06;2.40;;;1.33;;
18568;SDS011;14780;48.316;-1.050;2023-01-05T08:12:09;3.97;;;1.50;;
18568;SDS011;14780;48.316;-1.050;2023-01-05T08:14:54;2.65;;;1.30;;
18568;SDS011;14780;48.316;-1.050;2023-01-05T08:17:39;5.50;;;1.63;;
18568;SDS011;14780;48.316;-1.050;2023-01-05T08:20:24;5.30;;;1.77;;
18568;SDS011;14780;48.316;-1.050;2023-01-05T08:23:08;1.92;;;1.35;;
18568;SDS011;14780;48.316;-1.050;2023-01-05T08:25:53;2.15;;;1.30;;
18568;SDS011;14780;48.316;-1.050;2023-01-05T08:28:39;2.85;;;1.52;;
18568;SDS011;14780;48.316;-1.050;2023-01-05T08:31:25;2.28;;;1.35;;
18568;SDS011;14780;48.316;-1.050;2023-01-05T08:34:11;2.78;;;1.52;;
18568;SDS011;14780;48.316;-1.050;2023-01-05T08:36:56;1.95;;;1.20;;
18568;SDS011;14780;48.316;-1.050;2023-01-05T08:39:41;2.25;;;1.55;;
18568;SDS011;14780;48.316;-1.050;2023-01-05T08:42:26;1.73;;;1.42;;
18568;SDS011;14780;48.316;-1.050;2023-01-05T08:45:10;2.60;;;1.35;;
18568;SDS011;14780;48.316;-1.050;2023-01-05T08:47:55;3.33;;;1.70;;
18568;SDS011;14780;48.316;-1.050;2023-01-05T08:50:40;2.30;;;1.30;;
18568;SDS011;14780;48.316;-1.050;2023-01-05T08:53:25;2.58;;;1.38;;
18568;SDS011;14780;48.316;-1.050;2023-01-05T08:56:09;3.17;;;1.55;;
18568;SDS011;14780;48.316;-1.050;2023-01-05T08:58:54;3.17;;;1.67;;
18568;SDS011;14780;48.316;-1.050;2023-01-05T09:01:41;5.65;;;1.95;;
18568;SDS011;14780;48.316;-1.050;2023-01-05T09:04:26;3.55;;;1.70;;
18568;SDS011;14780;48.316;-1.050;2023-01-05T09:07:10;4.60;;;1.45;;
18568;SDS011;14780;48.316;-1.050;2023-01-05T09:09:55;3.97;;;1.35;;
18568;SDS011;14780;48.316;-1.050;2023-01-05T09:12:40;2.63;;;1.70;;
18568;SDS011;14780;48.316;-1.050;2023-01-05T09:15:24;3.10;;;1.48;;
18568;SDS011;14780;48.316;-1.050;2023-01-05T09:18:09;3.38;;;1.75;;
18568;SDS011;14780;48.316;-1.050;2023-01-05T09:20:54;3.85;;;1.65;;
18568;SDS011;14780;48.316;-1.050;2023-01-05T09:23:40;2.35;;;1.63;;
18568;SDS011;14780;48.316;-1.050;2023-01-05T09:26:25;2.88;;;1.48;;
18568;SDS011;14780;48.316;-1.050;2023-01-05T09:29:11;3.00;;;1.48;;
18568;SDS011;14780;48.316;-1.050;2023-01-05T09:31:56;3.70;;;1.60;;
18568;SDS011;14780;48.316;-1.050;2023-01-05T09:34:41;3.13;;;1.70;;
18568;SDS011;14780;48.316;-1.050;2023-01-05T09:37:25;3.72;;;1.67;;
18568;SDS011;14780;48.316;-1.050;2023-01-05T09:40:11;1.70;;;1.30;;
18568;SDS011;14780;48.316;-1.050;2023-01-05T09:42:56;2.80;;;1.55;;
18568;SDS011;14780;48.316;-1.050;2023-01-05T09:45:40;2.75;;;1.67;;
18568;SDS011;14780;48.316;-1.050;2023-01-05T09:48:26;3.55;;;1.77;;
18568;SDS011;14780;48.316;-1.050;2023-01-05T09:51:13;3.35;;;1.85;;
18568;SDS011;14780;48.316;-1.050;2023-01-05T09:53:58;3.38;;;1.80;;
18568;SDS011;14780;48.316;-1.050;2023-01-05T09:56:46;2.53;;;1.60;;
18568;SDS011;14780;48.316;-1.050;2023-01-05T09:59:34;2.67;;;1.52;;
18568;SDS011;14780;48.316;-1.050;2023-01-05T10:02:38;3.95;;;1.70;;
18568;SDS011;14780;48.316;-1.050;2023-01-05T10:05:31;2.58;;;1.48;;
18568;SDS011;14780;48.316;-1.050;2023-01-05T10:11:17;2.50;;;1.63;;
18568;SDS011;14780;48.316;-1.050;2023-01-05T10:17:25;3.13;;;1.77;;
18568;SDS011;14780;48.316;-1.050;2023-01-05T10:20:15;3.15;;;1.90;;
18568;SDS011;14780;48.316;-1.050;2023-01-05T10:26:26;3.60;;;1.60;;
18568;SDS011;14780;48.316;-1.050;2023-01-05T10:29:23;2.85;;;1.77;;
18568;SDS011;14780;48.316;-1.050;2023-01-05T10:32:25;3.58;;;1.60;;
18568;SDS011;14780;48.316;-1.050;2023-01-05T10:47:18;3.97;;;1.75;;
18568;SDS011;14780;48.316;-1.050;2023-01-05T10:53:18;3.35;;;1.95;;
18568;SDS011;14780;48.316;-1.050;2023-01-05T10:56:11;3.72;;;1.80;;
18568;SDS011;14780;48.316;-1.050;2023-01-05T10:59:05;4.13;;;1.70;;
18568;SDS011;14780;48.316;-1.050;2023-01-05T11:01:52;3.22;;;1.70;;
18568;SDS011;14780;48.316;-1.050;2023-01-05T11:04:37;2.65;;;1.65;;
18568;SDS011;14780;48.316;-1.050;2023-01-05T11:07:29;3.65;;;1.67;;
18568;SDS011;14780;48.316;-1.050;2023-01-05T11:16:28;3.85;;;1.77;;
18568;SDS011;14780;48.316;-1.050;2023-01-05T11:19:17;3.03;;;1.52;;
18568;SDS011;14780;48.316;-1.050;2023-01-05T11:25:21;3.67;;;1.90;;
18568;SDS011;14780;48.316;-1.050;2023-01-05T11:28:15;3.83;;;1.77;;
18568;SDS011;14780;48.316;-1.050;2023-01-05T11:31:01;3.70;;;1.80;;
18568;SDS011;14780;48.316;-1.050;2023-01-05T11:33:53;2.45;;;1.60;;
18568;SDS011;14780;48.316;-1.050;2023-01-05T11:36:41;3.90;;;2.20;;
18568;SDS011;14780;48.316;-1.050;2023-01-05T11:42:32;4.20;;;2.13;;
18568;SDS011;14780;48.316;-1.050;2023-01-05T11:45:19;3.00;;;1.40;;
18568;SDS011;14780;48.316;-1.050;2023-01-05T11:48:07;4.65;;;1.65;;
18568;SDS011;14780;48.316;-1.050;2023-01-05T11:51:01;4.03;;;1.90;;
18568;SDS011;14780;48.316;-1.050;2023-01-05T11:53:46;4.68;;;1.92;;
18568;SDS011;14780;48.316;-1.050;2023-01-05T11:56:31;2.42;;;1.55;;
18568;SDS011;14780;48.316;-1.050;2023-01-05T11:59:26;3.90;;;1.60;;
18568;SDS011;14780;48.316;-1.050;2023-01-05T12:02:36;3.80;;;1.90;;
18568;SDS011;14780;48.316;-1.050;2023-01-05T12:05:48;4.93;;;1.98;;
18568;SDS011;14780;48.316;-1.050;2023-01-05T12:08:48;4.05;;;1.77;;
18568;SDS011;14780;48.316;-1.050;2023-01-05T12:21:31;4.40;;;2.03;;
18568;SDS011;14780;48.316;-1.050;2023-01-05T12:24:39;3.58;;;1.98;;
18568;SDS011;14780;48.316;-1.050;2023-01-05T12:36:46;3.63;;;1.90;;
18568;SDS011;14780;48.316;-1.050;2023-01-05T12:42:32;3.75;;;1.80;;
18568;SDS011;14780;48.316;-1.050;2023-01-05T12:45:57;5.38;;;2.20;;
18568;SDS011;14780;48.316;-1.050;2023-01-05T12:48:52;4.78;;;2.03;;
18568;SDS011;14780;48.316;-1.050;2023-01-05T12:57:39;4.35;;;1.95;;
18568;SDS011;14780;48.316;-1.050;2023-01-05T13:00:32;3.50;;;1.85;;
18568;SDS011;14780;48.316;-1.050;2023-01-05T13:03:29;4.22;;;1.85;;
18568;SDS011;14780;48.316;-1.050;2023-01-05T13:06:23;5.30;;;2.10;;
18568;SDS011;14780;48.316;-1.050;2023-01-05T13:09:14;6.40;;;2.30;;
18568;SDS011;14780;48.316;-1.050;2023-01-05T13:12:06;3.75;;;1.80;;
18568;SDS011;14780;48.316;-1.050;2023-01-05T13:17:49;2.75;;;1.30;;
18568;SDS011;14780;48.316;-1.050;2023-01-05T13:20:54;3.72;;;2.08;;
18568;SDS011;14780;48.316;-1.050;2023-01-05T13:23:52;6.30;;;2.20;;
18568;SDS011;14780;48.316;-1.050;2023-01-05T13:26:45;5.85;;;1.95;;
18568;SDS011;14780;48.316;-1.050;2023-01-05T13:29:30;4.60;;;2.08;;
18568;SDS011;14780;48.316;-1.050;2023-01-05T13:35:38;5.65;;;2.22;;
18568;SDS011;14780;48.316;-1.050;2023-01-05T13:50:25;2.97;;;1.67;;
18568;SDS011;14780;48.316;-1.050;2023-01-05T13:53:22;4.65;;;1.83;;
18568;SDS011;14780;48.316;-1.050;2023-01-05T13:56:18;3.92;;;1.90;;
18568;SDS011;14780;48.316;-1.050;2023-01-05T13:59:21;3.15;;;1.63;;
18568;SDS011;14780;48.316;-1.050;2023-01-05T14:05:30;2.65;;;1.65;;
18568;SDS011;14780;48.316;-1.050;2023-01-05T14:08:25;3.17;;;1.75;;
18568;SDS011;14780;48.316;-1.050;2023-01-05T14:11:19;3.03;;;1.85;;
18568;SDS011;14780;48.316;-1.050;2023-01-05T14:14:23;4.10;;;1.85;;
18568;SDS011;14780;48.316;-1.050;2023-01-05T14:17:10;2.92;;;1.42;;
18568;SDS011;14780;48.316;-1.050;2023-01-05T14:19:54;5.35;;;1.60;;
18568;SDS011;14780;48.316;-1.050;2023-01-05T14:22:39;3.72;;;1.77;;
18568;SDS011;14780;48.316;-1.050;2023-01-05T14:34:14;3.08;;;1.70;;
18568;SDS011;14780;48.316;-1.050;2023-01-05T14:37:02;5.72;;;2.10;;
18568;SDS011;14780;48.316;-1.050;2023-01-05T14:39:48;2.78;;;1.70;;
18568;SDS011;14780;48.316;-1.050;2023-01-05T14:42:37;2.92;;;1.83;;
18568;SDS011;14780;48.316;-1.050;2023-01-05T14:45:23;4.05;;;1.83;;
18568;SDS011;14780;48.316;-1.050;2023-01-05T14:48:28;3.05;;;1.58;;
18568;SDS011;14780;48.316;-1.050;2023-01-05T14:51:22;3.95;;;1.70;;
18568;SDS011;14780;48.316;-1.050;2023-01-05T14:54:12;4.80;;;1.83;;
18568;SDS011;14780;48.316;-1.050;2023-01-05T15:00:20;6.38;;;1.90;;
18568;SDS011;14780;48.316;-1.050;2023-01-05T15:06:27;3.33;;;2.08;;
18568;SDS011;14780;48.316;-1.050;2023-01-05T15:21:31;9.68;;;2.53;;
18568;SDS011;14780;48.316;-1.050;2023-01-05T15:31:06;4.90;;;2.33;;
18568;SDS011;14780;48.316;-1.050;2023-01-05T15:34:03;5.00;;;2.40;;
18568;SDS011;14780;48.316;-1.050;2023-01-05T15:37:19;3.85;;;1.77;;
18568;SDS011;14780;48.316;-1.050;2023-01-05T15:40:07;5.85;;;2.05;;
18568;SDS011;14780;48.316;-1.050;2023-01-05T15:43:11;6.00;;;2.20;;
18568;SDS011;14780;48.316;-1.050;2023-01-05T15:45:59;4.43;;;2.20;;
18568;SDS011;14780;48.316;-1.050;2023-01-05T15:48:45;5.13;;;2.25;;
18568;SDS011;14780;48.316;-1.050;2023-01-05T15:51:32;4.53;;;2.00;;
18568;SDS011;14780;48.316;-1.050;2023-01-05T15:54:25;4.68;;;2.25;;
18568;SDS011;14780;48.316;-1.050;2023-01-05T15:57:19;4.65;;;1.98;;
18568;SDS011;14780;48.316;-1.050;2023-01-05T16:00:21;4.88;;;2.40;;
18568;SDS011;14780;48.316;-1.050;2023-01-05T16:03:30;11.30;;;2.30;;
18568;SDS011;14780;48.316;-1.050;2023-01-05T16:06:22;5.63;;;1.77;;
18568;SDS011;14780;48.316;-1.050;2023-01-05T16:09:18;3.60;;;1.90;;
18568;SDS011;14780;48.316;-1.050;2023-01-05T16:12:11;3.40;;;1.88;;
18568;SDS011;14780;48.316;-1.050;2023-01-05T16:15:10;4.63;;;1.73;;
18568;SDS011;14780;48.316;-1.050;2023-01-05T16:17:58;4.65;;;2.10;;
18568;SDS011;14780;48.316;-1.050;2023-01-05T16:20:45;3.85;;;2.20;;
18568;SDS011;14780;48.316;-1.050;2023-01-05T16:23:39;2.97;;;1.60;;
18568;SDS011;14780;48.316;-1.050;2023-01-05T16:26:36;3.85;;;1.95;;
18568;SDS011;14780;48.316;-1.050;2023-01-05T16:32:24;6.10;;;2.47;;
18568;SDS011;14780;48.316;-1.050;2023-01-05T16:38:26;4.95;;;2.05;;
18568;SDS011;14780;48.316;-1.050;2023-01-05T16:41:22;4.07;;;2.15;;
18568;SDS011;14780;48.316;-1.050;2023-01-05T16:44:10;3.75;;;2.10;;
18568;SDS011;14780;48.316;-1.050;2023-01-05T16:47:07;3.72;;;2.00;;
18568;SDS011;14780;48.316;-1.050;2023-01-05T16:49:52;4.03;;;1.98;;
18568;SDS011;14780;48.316;-1.050;2023-01-05T16:52:38;3.70;;;2.10;;
18568;SDS011;14780;48.316;-1.050;2023-01-05T16:55:27;5.40;;;2.17;;
18568;SDS011;14780;48.316;-1.050;2023-01-05T17:01:22;4.03;;;2.03;;
18568;SDS011;14780;48.316;-1.050;2023-01-05T17:04:17;4.43;;;2.22;;
18568;SDS011;14780;48.316;-1.050;2023-01-05T17:07:02;4.00;;;2.25;;
18568;SDS011;14780;48.316;-1.050;2023-01-05T17:09:47;5.40;;;2.38;;
18568;SDS011;14780;48.316;-1.050;2023-01-05T17:12:32;4.78;;;2.53;;
18568;SDS011;14780;48.316;-1.050;2023-01-05T17:15:17;5.03;;;2.47;;
18568;SDS011;14780;48.316;-1.050;2023-01-05T17:21:01;4.57;;;2.42;;
18568;SDS011;14780;48.316;-1.050;2023-01-05T17:23:49;5.07;;;2.22;;
18568;SDS011;14780;48.316;-1.050;2023-01-05T17:26:40;5.93;;;2.17;;
18568;SDS011;14780;48.316;-1.050;2023-01-05T17:29:27;3.38;;;1.90;;
18568;SDS011;14780;48.316;-1.050;2023-01-05T17:32:13;7.03;;;2.25;;
18568;SDS011;14780;48.316;-1.050;2023-01-05T17:34:57;6.18;;;2.05;;
18568;SDS011;14780;48.316;-1.050;2023-01-05T17:37:42;5.00;;;2.20;;
18568;SDS011;14780;48.316;-1.050;2023-01-05T17:40:27;3.10;;;2.00;;
18568;SDS011;14780;48.316;-1.050;2023-01-05T17:43:12;8.18;;;2.00;;
18568;SDS011;14780;48.316;-1.050;2023-01-05T17:45:57;10.20;;;2.35;;
18568;SDS011;14780;48.316;-1.050;2023-01-05T17:48:41;4.45;;;2.28;;
18568;SDS011;14780;48.316;-1.050;2023-01-05T17:51:26;7.05;;;2.20;;
18568;SDS011;14780;48.316;-1.050;2023-01-05T17:54:12;6.43;;;2.70;;
18568;SDS011;14780;48.316;-1.050;2023-01-05T17:56:57;9.10;;;3.80;;
18568;SDS011;14780;48.316;-1.050;2023-01-05T17:59:41;11.02;;;4.47;;
18568;SDS011;14780;48.316;-1.050;2023-01-05T18:02:27;9.55;;;4.63;;
18568;SDS011;14780;48.316;-1.050;2023-01-05T18:05:12;13.02;;;4.90;;
18568;SDS011;14780;48.316;-1.050;2023-01-05T18:07:57;14.18;;;4.55;;
18568;SDS011;14780;48.316;-1.050;2023-01-05T18:10:42;9.80;;;4.22;;
18568;SDS011;14780;48.316;-1.050;2023-01-05T18:13:27;20.02;;;4.05;;
18568;SDS011;14780;48.316;-1.050;2023-01-05T18:16:12;14.73;;;4.00;;
18568;SDS011;14780;48.316;-1.050;2023-01-05T18:18:57;10.48;;;3.85;;
18568;SDS011;14780;48.316;-1.050;2023-01-05T18:21:42;9.80;;;4.30;;
18568;SDS011;14780;48.316;-1.050;2023-01-05T18:24:26;10.25;;;3.50;;
18568;SDS011;14780;48.316;-1.050;2023-01-05T18:27:11;10.30;;;3.40;;
18568;SDS011;14780;48.316;-1.050;2023-01-05T18:29:56;8.50;;;3.35;;
18568;SDS011;14780;48.316;-1.050;2023-01-05T18:32:41;8.45;;;3.20;;
18568;SDS011;14780;48.316;-1.050;2023-01-05T18:35:26;15.02;;;2.75;;
18568;SDS011;14780;48.316;-1.050;2023-01-05T18:38:11;9.82;;;2.90;;
18568;SDS011;14780;48.316;-1.050;2023-01-05T18:40:56;9.80;;;2.70;;
18568;SDS011;14780;48.316;-1.050;2023-01-05T18:43:41;7.80;;;3.20;;
18568;SDS011;14780;48.316;-1.050;2023-01-05T18:46:27;6.85;;;3.28;;
18568;SDS011;14780;48.316;-1.050;2023-01-05T18:49:13;9.43;;;3.50;;
18568;SDS011;14780;48.316;-1.050;2023-01-05T18:51:58;5.72;;;2.53;;
18568;SDS011;14780;48.316;-1.050;2023-01-05T18:54:42;7.63;;;3.08;;
18568;SDS011;14780;48.316;-1.050;2023-01-05T18:57:28;5.53;;;2.60;;
18568;SDS011;14780;48.316;-1.050;2023-01-05T19:00:13;6.32;;;2.42;;
18568;SDS011;14780;48.316;-1.050;2023-01-05T19:02:58;4.60;;;2.35;;
18568;SDS011;14780;48.316;-1.050;2023-01-05T19:05:43;5.68;;;2.53;;
18568;SDS011;14780;48.316;-1.050;2023-01-05T19:08:28;7.35;;;2.78;;
18568;SDS011;14780;48.316;-1.050;2023-01-05T19:11:14;6.88;;;2.42;;
18568;SDS011;14780;48.316;-1.050;2023-01-05T19:14:01;4.45;;;2.30;;
18568;SDS011;14780;48.316;-1.050;2023-01-05T19:16:47;7.47;;;2.20;;